sensor_id;sensor_type;location;lat;lon;timestamp;temperature;humidity
49236;DHT22;35067;48.134;8.378;2022-12-07T00:00:50;2.30;99.90
49236;DHT22;35067;48.134;8.378;2022-12-07T00:02:50;2.10;99.90
49236;DHT22;35067;48.134;8.378;2022-12-07T00:04:51;2.00;99.90
49236;DHT22;35067;48.134;8.378;2022-12-07T00:06:52;2.20;99.90
49236;DHT22;35067;48.134;8.378;2022-12-07T00:08:53;2.20;99.90
49236;DHT22;35067;48.134;8.378;2022-12-07T00:10:54;2.40;99.90
49236;DHT22;35067;48.134;8.378;2022-12-07T00:12:54;2.30;99.90
49236;DHT22;35067;48.134;8.378;2022-12-07T00:14:55;2.10;99.90
49236;DHT22;35067;48.134;8.378;2022-12-07T00:16:56;2.20;99.90
49236;DHT22;35067;48.134;8.378;2022-12-07T00:18:57;2.10;99.90
49236;DHT22;35067;48.134;8.378;2022-12-07T00:21:06;2.20;99.90
49236;DHT22;35067;48.134;8.378;2022-12-07T00:23:07;2.20;99.90
49236;DHT22;35067;48.134;8.378;2022-12-07T00:25:07;2.20;99.90
49236;DHT22;35067;48.134;8.378;2022-12-07T00:27:08;2.10;99.90
49236;DHT22;35067;48.134;8.378;2022-12-07T00:29:16;2.10;99.90
49236;DHT22;35067;48.134;8.378;2022-12-07T00:31:20;2.00;99.90
49236;DHT22;35067;48.134;8.378;2022-12-07T00:33:32;2.00;99.90
49236;DHT22;35067;48.134;8.378;2022-12-07T00:35:33;2.00;99.90
49236;DHT22;35067;48.134;8.378;2022-12-07T00:37:34;2.00;99.90
49236;DHT22;35067;48.134;8.378;2022-12-07T00:39:34;2.10;99.90
49236;DHT22;35067;48.134;8.378;2022-12-07T00:41:35;2.10;99.90
49236;DHT22;35067;48.134;8.378;2022-12-07T00:43:36;2.20;99.90
49236;DHT22;35067;48.134;8.378;2022-12-07T00:45:36;2.10;99.90
49236;DHT22;35067;48.134;8.378;2022-12-07T00:47:37;2.10;99.90
49236;DHT22;35067;48.134;8.378;2022-12-07T00:49:37;2.00;99.90
49236;DHT22;35067;48.134;8.378;2022-12-07T00:51:38;2.10;99.90
49236;DHT22;35067;48.134;8.378;2022-12-07T00:53:39;2.10;99.90
49236;DHT22;35067;48.134;8.378;2022-12-07T00:55:41;2.10;99.90
49236;DHT22;35067;48.134;8.378;2022-12-07T00:57:41;2.20;99.90
49236;DHT22;35067;48.134;8.378;2022-12-07T00:59:42;2.20;99.90
49236;DHT22;35067;48.134;8.378;2022-12-07T01:01:43;2.20;99.90
49236;DHT22;35067;48.134;8.378;2022-12-07T01:03:43;2.10;99.90
49236;DHT22;35067;48.134;8.378;2022-12-07T01:05:52;2.20;99.90
49236;DHT22;35067;48.134;8.378;2022-12-07T01:07:54;2.10;99.90
49236;DHT22;35067;48.134;8.378;2022-12-07T01:09:54;2.30;99.90
49236;DHT22;35067;48.134;8.378;2022-12-07T01:11:55;2.40;99.90
49236;DHT22;35067;48.134;8.378;2022-12-07T01:13:57;2.40;99.90
49236;DHT22;35067;48.134;8.378;2022-12-07T01:16:00;2.40;99.90
49236;DHT22;35067;48.134;8.378;2022-12-07T01:18:03;2.30;99.90
49236;DHT22;35067;48.134;8.378;2022-12-07T01:20:04;2.30;99.90
49236;DHT22;35067;48.134;8.378;2022-12-07T01:22:05;2.30;99.90
49236;DHT22;35067;48.134;8.378;2022-12-07T01:24:09;2.20;99.90
49236;DHT22;35067;48.134;8.378;2022-12-07T01:26:12;2.20;99.90
49236;DHT22;35067;48.134;8.378;2022-12-07T01:28:15;2.30;99.90
49236;DHT22;35067;48.134;8.378;2022-12-07T01:30:16;2.20;99.90
49236;DHT22;35067;48.134;8.378;2022-12-07T01:32:17;2.20;99.90
49236;DHT22;35067;48.134;8.378;2022-12-07T01:34:17;2.20;99.90
49236;DHT22;35067;48.134;8.378;2022-12-07T01:36:26;2.10;99.90
49236;DHT22;35067;48.134;8.378;2022-12-07T01:38:36;2.20;99.90
49236;DHT22;35067;48.134;8.378;2022-12-07T01:40:37;2.30;99.90
49236;DHT22;35067;48.134;8.378;2022-12-07T01:42:38;2.30;99.90
49236;DHT22;35067;48.134;8.378;2022-12-07T01:45:30;2.30;99.90
49236;DHT22;35067;48.134;8.378;2022-12-07T01:47:37;2.40;99.90
49236;DHT22;35067;48.134;8.378;2022-12-07T01:49:42;2.40;99.90
49236;DHT22;35067;48.134;8.378;2022-12-07T01:51:46;2.40;99.90
49236;DHT22;35067;48.134;8.378;2022-12-07T01:53:48;2.40;99.90
49236;DHT22;35067;48.134;8.378;2022-12-07T01:55:50;2.30;99.90
49236;DHT22;35067;48.134;8.378;2022-12-07T01:57:53;2.40;99.90
49236;DHT22;35067;48.134;8.378;2022-12-07T01:59:55;2.10;99.90
49236;DHT22;35067;48.134;8.378;2022-12-07T02:01:56;2.00;99.90
49236;DHT22;35067;48.134;8.378;2022-12-07T02:03:58;2.00;99.90
49236;DHT22;35067;48.134;8.378;2022-12-07T02:05:59;2.00;99.90
49236;DHT22;35067;48.134;8.378;2022-12-07T02:08:01;2.00;99.90
49236;DHT22;35067;48.134;8.378;2022-12-07T02:10:16;1.90;99.90
49236;DHT22;35067;48.134;8.378;2022-12-07T02:12:22;1.90;99.90
49236;DHT22;35067;48.134;8.378;2022-12-07T02:14:23;2.10;99.90
49236;DHT22;35067;48.134;8.378;2022-12-07T02:19:24;1.90;99.90
49236;DHT22;35067;48.134;8.378;2022-12-07T02:26:24;1.80;99.90
49236;DHT22;35067;48.134;8.378;2022-12-07T02:31:11;1.80;99.90
49236;DHT22;35067;48.134;8.378;2022-12-07T02:33:27;1.70;99.90
49236;DHT22;35067;48.134;8.378;2022-12-07T02:35:39;1.50;99.90
49236;DHT22;35067;48.134;8.378;2022-12-07T02:37:51;1.50;99.90
49236;DHT22;35067;48.134;8.378;2022-12-07T02:40:17;1.50;99.90
49236;DHT22;35067;48.134;8.378;2022-12-07T02:42:44;1.50;99.90
49236;DHT22;35067;48.134;8.378;2022-12-07T02:44:47;1.60;99.90
49236;DHT22;35067;48.134;8.378;2022-12-07T02:46:54;1.60;99.90
49236;DHT22;35067;48.134;8.378;2022-12-07T02:48:58;1.60;99.90
49236;DHT22;35067;48.134;8.378;2022-12-07T02:51:00;1.40;99.90
49236;DHT22;35067;48.134;8.378;2022-12-07T02:53:00;1.60;99.90
49236;DHT22;35067;48.134;8.378;2022-12-07T02:55:02;1.80;99.90
49236;DHT22;35067;48.134;8.378;2022-12-07T02:57:30;1.90;99.90
49236;DHT22;35067;48.134;8.378;2022-12-07T02:59:59;1.80;99.90
49236;DHT22;35067;48.134;8.378;2022-12-07T03:07:42;2.00;99.90
49236;DHT22;35067;48.134;8.378;2022-12-07T03:12:46;1.90;99.90
49236;DHT22;35067;48.134;8.378;2022-12-07T03:15:14;1.90;99.90
49236;DHT22;35067;48.134;8.378;2022-12-07T03:17:22;1.90;99.90
49236;DHT22;35067;48.134;8.378;2022-12-07T03:19:26;1.70;99.90
49236;DHT22;35067;48.134;8.378;2022-12-07T03:21:32;1.70;99.90
49236;DHT22;35067;48.134;8.378;2022-12-07T03:23:35;1.60;99.90
49236;DHT22;35067;48.134;8.378;2022-12-07T03:25:44;1.60;99.90
49236;DHT22;35067;48.134;8.378;2022-12-07T03:27:58;1.60;99.90
49236;DHT22;35067;48.134;8.378;2022-12-07T03:30:07;1.70;99.90
49236;DHT22;35067;48.134;8.378;2022-12-07T03:32:20;1.70;99.90
49236;DHT22;35067;48.134;8.378;2022-12-07T03:34:38;1.80;99.90
49236;DHT22;35067;48.134;8.378;2022-12-07T03:36:51;1.60;99.90
49236;DHT22;35067;48.134;8.378;2022-12-07T03:39:00;1.60;99.90
49236;DHT22;35067;48.134;8.378;2022-12-07T03:41:14;1.50;99.90
49236;DHT22;35067;48.134;8.378;2022-12-07T03:43:19;1.50;99.90
49236;DHT22;35067;48.134;8.378;2022-12-07T03:45:24;1.50;99.90
49236;DHT22;35067;48.134;8.378;2022-12-07T03:47:54;1.40;99.90
49236;DHT22;35067;48.134;8.378;2022-12-07T03:50:16;1.50;99.90
49236;DHT22;35067;48.134;8.378;2022-12-07T03:52:47;1.60;99.90
49236;DHT22;35067;48.134;8.378;2022-12-07T03:55:50;1.50;99.90
49236;DHT22;35067;48.134;8.378;2022-12-07T03:57:47;1.50;99.90
49236;DHT22;35067;48.134;8.378;2022-12-07T03:59:51;1.60;99.90
49236;DHT22;35067;48.134;8.378;2022-12-07T04:01:55;1.70;99.90
49236;DHT22;35067;48.134;8.378;2022-12-07T04:03:57;1.60;99.90
49236;DHT22;35067;48.134;8.378;2022-12-07T04:05:58;1.50;99.90
49236;DHT22;35067;48.134;8.378;2022-12-07T04:07:59;1.50;99.90
49236;DHT22;35067;48.134;8.378;2022-12-07T04:10:00;1.40;99.90
49236;DHT22;35067;48.134;8.378;2022-12-07T04:12:01;1.10;99.90
49236;DHT22;35067;48.134;8.378;2022-12-07T04:14:01;1.10;99.90
49236;DHT22;35067;48.134;8.378;2022-12-07T04:16:20;1.20;99.90
49236;DHT22;35067;48.134;8.378;2022-12-07T04:18:21;1.30;99.90
49236;DHT22;35067;48.134;8.378;2022-12-07T04:20:22;1.40;99.90
49236;DHT22;35067;48.134;8.378;2022-12-07T04:22:22;1.30;99.90
49236;DHT22;35067;48.134;8.378;2022-12-07T04:24:24;1.40;99.90
49236;DHT22;35067;48.134;8.378;2022-12-07T04:26:25;1.40;99.90
49236;DHT22;35067;48.134;8.378;2022-12-07T04:28:25;1.40;99.90
49236;DHT22;35067;48.134;8.378;2022-12-07T04:30:26;1.50;99.90
49236;DHT22;35067;48.134;8.378;2022-12-07T04:32:27;1.60;99.90
49236;DHT22;35067;48.134;8.378;2022-12-07T04:34:27;1.50;99.90
49236;DHT22;35067;48.134;8.378;2022-12-07T04:36:28;1.60;99.90
49236;DHT22;35067;48.134;8.378;2022-12-07T04:38:29;1.50;99.90
49236;DHT22;35067;48.134;8.378;2022-12-07T04:40:29;1.60;99.90
49236;DHT22;35067;48.134;8.378;2022-12-07T04:42:30;1.70;99.90
49236;DHT22;35067;48.134;8.378;2022-12-07T04:44:31;1.60;99.90
49236;DHT22;35067;48.134;8.378;2022-12-07T04:46:32;1.50;99.90
49236;DHT22;35067;48.134;8.378;2022-12-07T04:48:33;1.60;99.90
49236;DHT22;35067;48.134;8.378;2022-12-07T04:50:35;1.50;99.90
49236;DHT22;35067;48.134;8.378;2022-12-07T04:52:35;1.60;99.90
49236;DHT22;35067;48.134;8.378;2022-12-07T04:54:36;1.70;99.90
49236;DHT22;35067;48.134;8.378;2022-12-07T04:56:37;1.70;99.90
49236;DHT22;35067;48.134;8.378;2022-12-07T04:58:38;1.70;99.90
49236;DHT22;35067;48.134;8.378;2022-12-07T05:00:39;1.60;99.90
49236;DHT22;35067;48.134;8.378;2022-12-07T05:02:40;1.60;99.90
49236;DHT22;35067;48.134;8.378;2022-12-07T05:04:40;1.70;99.90
49236;DHT22;35067;48.134;8.378;2022-12-07T05:06:41;1.70;99.90
49236;DHT22;35067;48.134;8.378;2022-12-07T05:08:43;1.50;99.90
49236;DHT22;35067;48.134;8.378;2022-12-07T05:10:44;1.60;99.90
49236;DHT22;35067;48.134;8.378;2022-12-07T05:12:45;1.40;99.90
49236;DHT22;35067;48.134;8.378;2022-12-07T05:14:46;1.40;99.90
49236;DHT22;35067;48.134;8.378;2022-12-07T05:16:49;1.50;99.90
49236;DHT22;35067;48.134;8.378;2022-12-07T05:18:50;1.60;99.90
49236;DHT22;35067;48.134;8.378;2022-12-07T05:20:51;1.70;99.90
49236;DHT22;35067;48.134;8.378;2022-12-07T05:22:52;1.40;99.90
49236;DHT22;35067;48.134;8.378;2022-12-07T05:24:53;1.50;99.90
49236;DHT22;35067;48.134;8.378;2022-12-07T05:26:54;1.70;99.90
49236;DHT22;35067;48.134;8.378;2022-12-07T05:28:56;1.70;99.90
49236;DHT22;35067;48.134;8.378;2022-12-07T05:30:57;1.70;99.90
49236;DHT22;35067;48.134;8.378;2022-12-07T05:32:58;1.80;99.90
49236;DHT22;35067;48.134;8.378;2022-12-07T05:34:58;1.70;99.90
49236;DHT22;35067;48.134;8.378;2022-12-07T05:36:59;1.50;99.90
49236;DHT22;35067;48.134;8.378;2022-12-07T05:39:00;1.40;99.90
49236;DHT22;35067;48.134;8.378;2022-12-07T05:41:02;1.50;99.90
49236;DHT22;35067;48.134;8.378;2022-12-07T05:43:03;1.50;99.90
49236;DHT22;35067;48.134;8.378;2022-12-07T05:45:04;1.30;99.90
49236;DHT22;35067;48.134;8.378;2022-12-07T05:47:05;1.30;99.90
49236;DHT22;35067;48.134;8.378;2022-12-07T05:49:06;1.40;99.90
49236;DHT22;35067;48.134;8.378;2022-12-07T05:51:07;1.20;99.90
49236;DHT22;35067;48.134;8.378;2022-12-07T05:53:07;1.10;99.90
49236;DHT22;35067;48.134;8.378;2022-12-07T05:55:08;0.90;99.90
49236;DHT22;35067;48.134;8.378;2022-12-07T05:57:09;0.80;99.90
49236;DHT22;35067;48.134;8.378;2022-12-07T05:59:10;0.80;99.90
49236;DHT22;35067;48.134;8.378;2022-12-07T06:01:22;1.00;99.90
49236;DHT22;35067;48.134;8.378;2022-12-07T06:03:23;1.10;99.90
49236;DHT22;35067;48.134;8.378;2022-12-07T06:05:24;1.10;99.90
49236;DHT22;35067;48.134;8.378;2022-12-07T06:07:24;1.10;99.90
49236;DHT22;35067;48.134;8.378;2022-12-07T06:09:26;0.90;99.90
49236;DHT22;35067;48.134;8.378;2022-12-07T06:11:28;0.70;99.90
49236;DHT22;35067;48.134;8.378;2022-12-07T06:13:47;0.70;99.90
49236;DHT22;35067;48.134;8.378;2022-12-07T06:15:48;0.70;99.90
49236;DHT22;35067;48.134;8.378;2022-12-07T06:17:48;0.70;99.90
49236;DHT22;35067;48.134;8.378;2022-12-07T06:19:49;0.70;99.90
49236;DHT22;35067;48.134;8.378;2022-12-07T06:21:51;0.50;99.90
49236;DHT22;35067;48.134;8.378;2022-12-07T06:23:51;0.40;99.90
49236;DHT22;35067;48.134;8.378;2022-12-07T06:25:52;0.20;99.90
49236;DHT22;35067;48.134;8.378;2022-12-07T06:27:53;0.20;99.90
49236;DHT22;35067;48.134;8.378;2022-12-07T06:29:55;0.20;99.90
49236;DHT22;35067;48.134;8.378;2022-12-07T06:31:56;0.10;99.90
49236;DHT22;35067;48.134;8.378;2022-12-07T06:34:02;0.00;99.90
49236;DHT22;35067;48.134;8.378;2022-12-07T06:36:04;0.00;99.90
49236;DHT22;35067;48.134;8.378;2022-12-07T06:38:05;-0.10;99.90
49236;DHT22;35067;48.134;8.378;2022-12-07T06:40:06;0.00;99.90
49236;DHT22;35067;48.134;8.378;2022-12-07T06:42:07;0.00;99.90
49236;DHT22;35067;48.134;8.378;2022-12-07T06:44:08;-0.10;99.90
49236;DHT22;35067;48.134;8.378;2022-12-07T06:46:09;-0.10;99.90
49236;DHT22;35067;48.134;8.378;2022-12-07T06:48:09;-0.20;99.90
49236;DHT22;35067;48.134;8.378;2022-12-07T06:50:10;-0.30;99.90
49236;DHT22;35067;48.134;8.378;2022-12-07T06:52:11;-0.40;99.90
49236;DHT22;35067;48.134;8.378;2022-12-07T06:54:13;-0.50;99.90
49236;DHT22;35067;48.134;8.378;2022-12-07T06:56:14;-0.60;99.90
49236;DHT22;35067;48.134;8.378;2022-12-07T06:58:16;-0.70;99.90
49236;DHT22;35067;48.134;8.378;2022-12-07T07:00:17;-0.70;99.90
49236;DHT22;35067;48.134;8.378;2022-12-07T07:02:18;-0.60;99.90
49236;DHT22;35067;48.134;8.378;2022-12-07T07:04:19;-0.70;99.90
49236;DHT22;35067;48.134;8.378;2022-12-07T07:06:19;-0.70;99.90
49236;DHT22;35067;48.134;8.378;2022-12-07T07:08:20;-0.80;99.90
49236;DHT22;35067;48.134;8.378;2022-12-07T07:10:21;-0.80;99.90
49236;DHT22;35067;48.134;8.378;2022-12-07T07:12:21;-0.80;99.90
49236;DHT22;35067;48.134;8.378;2022-12-07T07:14:22;-0.90;99.90
49236;DHT22;35067;48.134;8.378;2022-12-07T07:16:23;-0.90;99.90
49236;DHT22;35067;48.134;8.378;2022-12-07T07:18:25;-0.90;99.90
49236;DHT22;35067;48.134;8.378;2022-12-07T07:20:26;-0.90;99.90
49236;DHT22;35067;48.134;8.378;2022-12-07T07:22:26;-0.90;99.90
49236;DHT22;35067;48.134;8.378;2022-12-07T07:24:27;-0.90;99.90
49236;DHT22;35067;48.134;8.378;2022-12-07T07:26:28;-0.90;99.90
49236;DHT22;35067;48.134;8.378;2022-12-07T07:28:28;-1.00;99.90
49236;DHT22;35067;48.134;8.378;2022-12-07T07:30:29;-1.00;99.90
49236;DHT22;35067;48.134;8.378;2022-12-07T07:32:30;-0.90;99.90
49236;DHT22;35067;48.134;8.378;2022-12-07T07:34:31;-0.90;99.90
49236;DHT22;35067;48.134;8.378;2022-12-07T07:36:32;-0.90;99.90
49236;DHT22;35067;48.134;8.378;2022-12-07T07:38:33;-0.80;99.90
49236;DHT22;35067;48.134;8.378;2022-12-07T07:40:33;-0.90;99.90
49236;DHT22;35067;48.134;8.378;2022-12-07T07:42:34;-0.90;99.90
49236;DHT22;35067;48.134;8.378;2022-12-07T07:44:35;-0.90;99.90
49236;DHT22;35067;48.134;8.378;2022-12-07T07:46:36;-0.80;99.90
49236;DHT22;35067;48.134;8.378;2022-12-07T07:48:36;-0.80;99.90
49236;DHT22;35067;48.134;8.378;2022-12-07T07:50:37;-0.80;99.90
49236;DHT22;35067;48.134;8.378;2022-12-07T07:52:38;-0.70;99.90
49236;DHT22;35067;48.134;8.378;2022-12-07T07:54:39;-0.70;99.90
49236;DHT22;35067;48.134;8.378;2022-12-07T07:56:40;-0.70;99.90
49236;DHT22;35067;48.134;8.378;2022-12-07T07:58:40;-0.60;99.90
49236;DHT22;35067;48.134;8.378;2022-12-07T08:00:41;-0.50;99.90
49236;DHT22;35067;48.134;8.378;2022-12-07T08:02:42;-0.30;99.90
49236;DHT22;35067;48.134;8.378;2022-12-07T08:04:44;-0.30;99.90
49236;DHT22;35067;48.134;8.378;2022-12-07T08:06:45;-0.40;99.90
49236;DHT22;35067;48.134;8.378;2022-12-07T08:08:46;-0.20;99.90
49236;DHT22;35067;48.134;8.378;2022-12-07T08:10:47;-0.10;99.90
49236;DHT22;35067;48.134;8.378;2022-12-07T08:12:48;-0.10;99.90
49236;DHT22;35067;48.134;8.378;2022-12-07T08:15:07;-0.10;99.90
49236;DHT22;35067;48.134;8.378;2022-12-07T08:17:08;0.10;99.90
49236;DHT22;35067;48.134;8.378;2022-12-07T08:19:09;0.20;99.90
49236;DHT22;35067;48.134;8.378;2022-12-07T08:21:13;0.10;99.90
49236;DHT22;35067;48.134;8.378;2022-12-07T08:23:14;0.00;99.90
49236;DHT22;35067;48.134;8.378;2022-12-07T08:25:15;0.00;99.90
49236;DHT22;35067;48.134;8.378;2022-12-07T08:27:16;0.10;99.90
49236;DHT22;35067;48.134;8.378;2022-12-07T08:29:16;0.10;99.90
49236;DHT22;35067;48.134;8.378;2022-12-07T08:31:18;0.30;99.90
49236;DHT22;35067;48.134;8.378;2022-12-07T08:33:19;0.50;99.90
49236;DHT22;35067;48.134;8.378;2022-12-07T08:35:23;0.60;99.90
49236;DHT22;35067;48.134;8.378;2022-12-07T08:37:24;0.80;99.90
49236;DHT22;35067;48.134;8.378;2022-12-07T08:39:24;1.00;99.90
49236;DHT22;35067;48.134;8.378;2022-12-07T08:41:25;1.00;99.90
49236;DHT22;35067;48.134;8.378;2022-12-07T08:43:26;1.20;99.90
49236;DHT22;35067;48.134;8.378;2022-12-07T08:45:27;1.20;99.90
49236;DHT22;35067;48.134;8.378;2022-12-07T08:47:28;1.30;99.90
49236;DHT22;35067;48.134;8.378;2022-12-07T08:49:39;1.40;99.90
49236;DHT22;35067;48.134;8.378;2022-12-07T08:51:41;1.70;99.90
49236;DHT22;35067;48.134;8.378;2022-12-07T08:53:43;1.90;99.90
49236;DHT22;35067;48.134;8.378;2022-12-07T08:55:46;2.10;99.60
49236;DHT22;35067;48.134;8.378;2022-12-07T08:57:47;2.30;97.40
49236;DHT22;35067;48.134;8.378;2022-12-07T08:59:48;2.40;96.80
49236;DHT22;35067;48.134;8.378;2022-12-07T09:01:48;2.60;97.30
49236;DHT22;35067;48.134;8.378;2022-12-07T09:03:49;2.80;96.80
49236;DHT22;35067;48.134;8.378;2022-12-07T09:05:50;2.80;94.30
49236;DHT22;35067;48.134;8.378;2022-12-07T09:07:55;2.70;94.00
49236;DHT22;35067;48.134;8.378;2022-12-07T09:09:58;2.90;93.70
49236;DHT22;35067;48.134;8.378;2022-12-07T09:11:58;2.90;93.50
49236;DHT22;35067;48.134;8.378;2022-12-07T09:13:59;2.70;94.10
49236;DHT22;35067;48.134;8.378;2022-12-07T09:16:00;2.80;95.00
49236;DHT22;35067;48.134;8.378;2022-12-07T09:18:01;2.70;92.90
49236;DHT22;35067;48.134;8.378;2022-12-07T09:20:03;2.60;94.50
49236;DHT22;35067;48.134;8.378;2022-12-07T09:22:05;2.80;95.20
49236;DHT22;35067;48.134;8.378;2022-12-07T09:24:06;3.30;92.70
49236;DHT22;35067;48.134;8.378;2022-12-07T09:26:07;3.70;91.10
49236;DHT22;35067;48.134;8.378;2022-12-07T09:28:08;4.10;86.50
49236;DHT22;35067;48.134;8.378;2022-12-07T09:30:09;4.60;85.40
49236;DHT22;35067;48.134;8.378;2022-12-07T09:32:10;5.20;82.60
49236;DHT22;35067;48.134;8.378;2022-12-07T09:34:10;5.50;76.70
49236;DHT22;35067;48.134;8.378;2022-12-07T09:36:11;6.00;74.00
49236;DHT22;35067;48.134;8.378;2022-12-07T09:38:12;6.10;70.10
49236;DHT22;35067;48.134;8.378;2022-12-07T09:40:14;5.70;69.60
49236;DHT22;35067;48.134;8.378;2022-12-07T09:42:28;5.50;77.00
49236;DHT22;35067;48.134;8.378;2022-12-07T09:44:30;5.30;73.40
49236;DHT22;35067;48.134;8.378;2022-12-07T09:46:36;5.20;74.60
49236;DHT22;35067;48.134;8.378;2022-12-07T09:48:39;5.40;74.90
49236;DHT22;35067;48.134;8.378;2022-12-07T09:50:40;5.70;74.20
49236;DHT22;35067;48.134;8.378;2022-12-07T09:52:43;6.20;72.40
49236;DHT22;35067;48.134;8.378;2022-12-07T09:54:48;6.40;72.40
49236;DHT22;35067;48.134;8.378;2022-12-07T09:56:49;6.80;71.20
49236;DHT22;35067;48.134;8.378;2022-12-07T09:58:58;7.10;66.10
49236;DHT22;35067;48.134;8.378;2022-12-07T10:03:11;6.60;69.80
49236;DHT22;35067;48.134;8.378;2022-12-07T10:05:18;6.70;66.70
49236;DHT22;35067;48.134;8.378;2022-12-07T10:07:21;6.50;64.00
49236;DHT22;35067;48.134;8.378;2022-12-07T10:09:22;5.70;66.50
49236;DHT22;35067;48.134;8.378;2022-12-07T10:11:22;5.60;68.00
49236;DHT22;35067;48.134;8.378;2022-12-07T10:13:38;5.20;69.90
49236;DHT22;35067;48.134;8.378;2022-12-07T10:15:55;4.70;75.10
49236;DHT22;35067;48.134;8.378;2022-12-07T10:17:56;5.30;72.50
49236;DHT22;35067;48.134;8.378;2022-12-07T10:20:22;5.80;70.60
49236;DHT22;35067;48.134;8.378;2022-12-07T10:22:26;6.20;68.30
49236;DHT22;35067;48.134;8.378;2022-12-07T10:24:27;6.50;68.80
49236;DHT22;35067;48.134;8.378;2022-12-07T10:28:46;7.40;62.20
49236;DHT22;35067;48.134;8.378;2022-12-07T10:31:15;7.40;61.50
49236;DHT22;35067;48.134;8.378;2022-12-07T10:33:36;7.70;60.20
49236;DHT22;35067;48.134;8.378;2022-12-07T10:35:43;7.90;60.00
49236;DHT22;35067;48.134;8.378;2022-12-07T10:37:44;7.90;60.30
49236;DHT22;35067;48.134;8.378;2022-12-07T10:39:48;8.30;59.90
49236;DHT22;35067;48.134;8.378;2022-12-07T10:42:02;8.60;59.70
49236;DHT22;35067;48.134;8.378;2022-12-07T10:44:03;9.10;58.00
49236;DHT22;35067;48.134;8.378;2022-12-07T10:48:54;9.40;54.60
49236;DHT22;35067;48.134;8.378;2022-12-07T10:57:59;10.30;52.30
49236;DHT22;35067;48.134;8.378;2022-12-07T11:07:51;11.50;46.40
49236;DHT22;35067;48.134;8.378;2022-12-07T11:12:47;11.40;44.60
49236;DHT22;35067;48.134;8.378;2022-12-07T11:15:01;11.60;44.60
49236;DHT22;35067;48.134;8.378;2022-12-07T11:19:32;12.80;42.60
49236;DHT22;35067;48.134;8.378;2022-12-07T11:24:58;12.80;42.20
49236;DHT22;35067;48.134;8.378;2022-12-07T11:35:05;13.90;38.10
49236;DHT22;35067;48.134;8.378;2022-12-07T11:37:13;13.40;40.00
49236;DHT22;35067;48.134;8.378;2022-12-07T11:41:28;14.40;37.40
49236;DHT22;35067;48.134;8.378;2022-12-07T11:43:33;14.00;36.90
49236;DHT22;35067;48.134;8.378;2022-12-07T11:45:37;13.90;38.20
49236;DHT22;35067;48.134;8.378;2022-12-07T11:47:53;14.00;38.30
49236;DHT22;35067;48.134;8.378;2022-12-07T11:50:03;13.70;39.00
49236;DHT22;35067;48.134;8.378;2022-12-07T11:52:27;13.30;38.60
49236;DHT22;35067;48.134;8.378;2022-12-07T11:54:36;12.30;40.60
49236;DHT22;35067;48.134;8.378;2022-12-07T11:56:41;11.40;43.30
49236;DHT22;35067;48.134;8.378;2022-12-07T11:58:58;10.70;45.40
49236;DHT22;35067;48.134;8.378;2022-12-07T12:03:28;8.80;49.90
49236;DHT22;35067;48.134;8.378;2022-12-07T12:05:32;8.30;52.20
49236;DHT22;35067;48.134;8.378;2022-12-07T12:07:33;8.30;54.00
49236;DHT22;35067;48.134;8.378;2022-12-07T12:09:48;8.70;52.20
49236;DHT22;35067;48.134;8.378;2022-12-07T12:12:31;8.90;49.80
49236;DHT22;35067;48.134;8.378;2022-12-07T12:14:54;8.60;51.70
49236;DHT22;35067;48.134;8.378;2022-12-07T12:19:35;9.10;52.90
49236;DHT22;35067;48.134;8.378;2022-12-07T12:21:42;10.50;50.60
49236;DHT22;35067;48.134;8.378;2022-12-07T12:25:57;12.10;46.50
49236;DHT22;35067;48.134;8.378;2022-12-07T12:28:00;12.50;45.40
49236;DHT22;35067;48.134;8.378;2022-12-07T12:30:29;12.00;44.60
49236;DHT22;35067;48.134;8.378;2022-12-07T12:32:44;11.50;44.40
49236;DHT22;35067;48.134;8.378;2022-12-07T12:36:48;8.80;53.70
49236;DHT22;35067;48.134;8.378;2022-12-07T12:41:00;7.90;58.20
49236;DHT22;35067;48.134;8.378;2022-12-07T12:45:49;8.60;56.30
49236;DHT22;35067;48.134;8.378;2022-12-07T12:47:56;9.30;56.40
49236;DHT22;35067;48.134;8.378;2022-12-07T12:50:19;9.70;55.60
49236;DHT22;35067;48.134;8.378;2022-12-07T12:52:51;10.50;53.70
49236;DHT22;35067;48.134;8.378;2022-12-07T12:57:21;10.40;50.80
49236;DHT22;35067;48.134;8.378;2022-12-07T12:59:30;10.10;51.00
49236;DHT22;35067;48.134;8.378;2022-12-07T13:01:42;9.30;53.50
49236;DHT22;35067;48.134;8.378;2022-12-07T13:03:54;8.90;56.90
49236;DHT22;35067;48.134;8.378;2022-12-07T13:06:18;8.50;56.90
49236;DHT22;35067;48.134;8.378;2022-12-07T13:08:24;7.80;59.40
49236;DHT22;35067;48.134;8.378;2022-12-07T13:12:31;6.50;63.00
49236;DHT22;35067;48.134;8.378;2022-12-07T13:14:40;6.30;66.10
49236;DHT22;35067;48.134;8.378;2022-12-07T13:16:42;6.20;66.30
49236;DHT22;35067;48.134;8.378;2022-12-07T13:18:43;5.60;66.60
49236;DHT22;35067;48.134;8.378;2022-12-07T13:23:18;5.00;71.30
49236;DHT22;35067;48.134;8.378;2022-12-07T13:25:33;4.90;73.20
49236;DHT22;35067;48.134;8.378;2022-12-07T13:27:41;4.70;73.00
49236;DHT22;35067;48.134;8.378;2022-12-07T13:29:43;4.50;74.70
49236;DHT22;35067;48.134;8.378;2022-12-07T13:33:55;4.50;73.90
49236;DHT22;35067;48.134;8.378;2022-12-07T13:35:57;4.50;73.90
49236;DHT22;35067;48.134;8.378;2022-12-07T13:38:13;4.40;74.10
49236;DHT22;35067;48.134;8.378;2022-12-07T13:40:23;4.20;75.40
49236;DHT22;35067;48.134;8.378;2022-12-07T13:42:30;4.30;74.80
49236;DHT22;35067;48.134;8.378;2022-12-07T13:44:34;4.10;75.50
49236;DHT22;35067;48.134;8.378;2022-12-07T13:47:06;4.10;77.30
49236;DHT22;35067;48.134;8.378;2022-12-07T13:49:47;4.20;77.90
49236;DHT22;35067;48.134;8.378;2022-12-07T13:51:50;4.30;77.00
49236;DHT22;35067;48.134;8.378;2022-12-07T13:53:54;4.30;76.30
49236;DHT22;35067;48.134;8.378;2022-12-07T13:55:58;4.20;76.30
49236;DHT22;35067;48.134;8.378;2022-12-07T13:58:00;4.10;76.50
49236;DHT22;35067;48.134;8.378;2022-12-07T14:00:13;4.10;76.20
49236;DHT22;35067;48.134;8.378;2022-12-07T14:02:28;4.20;74.60
49236;DHT22;35067;48.134;8.378;2022-12-07T14:06:36;3.60;76.40
49236;DHT22;35067;48.134;8.378;2022-12-07T14:08:48;3.70;77.70
49236;DHT22;35067;48.134;8.378;2022-12-07T14:12:49;4.00;77.00
49236;DHT22;35067;48.134;8.378;2022-12-07T14:14:51;3.90;77.10
49236;DHT22;35067;48.134;8.378;2022-12-07T14:17:17;4.00;77.00
49236;DHT22;35067;48.134;8.378;2022-12-07T14:21:42;3.90;77.70
49236;DHT22;35067;48.134;8.378;2022-12-07T14:23:43;4.00;79.50
49236;DHT22;35067;48.134;8.378;2022-12-07T14:27:53;4.20;79.70
49236;DHT22;35067;48.134;8.378;2022-12-07T14:29:58;4.10;79.70
49236;DHT22;35067;48.134;8.378;2022-12-07T14:32:23;4.20;79.10
49236;DHT22;35067;48.134;8.378;2022-12-07T14:34:28;4.20;78.60
49236;DHT22;35067;48.134;8.378;2022-12-07T14:36:29;4.30;78.80
49236;DHT22;35067;48.134;8.378;2022-12-07T14:38:29;4.20;78.20
49236;DHT22;35067;48.134;8.378;2022-12-07T14:40:31;4.10;79.10
49236;DHT22;35067;48.134;8.378;2022-12-07T14:42:33;3.90;78.60
49236;DHT22;35067;48.134;8.378;2022-12-07T14:44:34;3.80;79.40
49236;DHT22;35067;48.134;8.378;2022-12-07T14:46:35;3.60;81.40
49236;DHT22;35067;48.134;8.378;2022-12-07T14:48:36;3.40;82.20
49236;DHT22;35067;48.134;8.378;2022-12-07T14:50:38;3.40;84.60